Terminal Aerodrome Forecast
Issued by NWS

Home | Current Version | Previous Version | Text Only | Print | Product List | Glossary On
Versions: 1 2 3 4 5 6 7 8 9 10 11 12 13 14 15 16 17 18 19 20 21 22 23
000
FTUS46 KMFR 041135
TAFOTH
TAF
KOTH 041135Z 0412/0512 VRB03KT P6SM OVC010
      TEMPO 0412/0416 3SM BR OVC007
     FM041700 35010KT P6SM BKN012
     FM041900 35014G22KT P6SM SCT015 SCT250
     FM050500 36010KT P6SM OVC006=

USA.gov is the U.S. government's official web portal to all federal, state and local government web resources and services.